createdAt,value
2023-04-22T00:02:59.658Z,97.8
2023-04-22T00:15:43.742Z,97.6
2023-04-22T00:22:14.968Z,96.9
2023-04-22T00:34:44.748Z,94.8
2023-04-22T00:40:52.513Z,95.4
2023-04-22T00:47:01.366Z,95.2
2023-04-22T00:53:25.158Z,95.1
2023-04-22T00:59:48.120Z,94.2
2023-04-22T01:12:15.728Z,94
2023-04-22T01:18:22.246Z,94.2
2023-04-22T01:30:49.895Z,93.2
2023-04-22T01:36:49.485Z,93.6
2023-04-22T01:43:20.172Z,94.1
2023-04-22T01:49:11.439Z,93.1
2023-04-22T01:55:05.534Z,93.1
2023-04-22T02:01:00.180Z,92.6
2023-04-22T02:07:01.433Z,92.7
2023-04-22T02:13:02.037Z,92.7
2023-04-22T02:19:02.773Z,92.1
2023-04-22T02:24:58.870Z,92.6
2023-04-22T02:30:57.786Z,92.2
2023-04-22T02:36:53.515Z,92.4
2023-04-22T02:42:46.103Z,91.6
2023-04-22T02:48:39.427Z,91.9
2023-04-22T02:54:34.792Z,91.4
2023-04-22T03:00:31.971Z,92
2023-04-22T03:06:29.908Z,92.5
2023-04-22T03:12:30.306Z,93.3
2023-04-22T03:18:26.235Z,93.8
2023-04-22T03:24:30.721Z,94.4
2023-04-22T03:30:30.846Z,93.9
2023-04-22T03:36:28.025Z,93.5
2023-04-22T03:42:30.393Z,93.5
2023-04-22T03:48:25.587Z,93.7
2023-04-22T03:54:42.641Z,93.8
2023-04-22T04:00:48.701Z,93.6
2023-04-22T04:06:42.475Z,93.5
2023-04-22T04:12:34.203Z,93
2023-04-22T04:18:26.944Z,93
2023-04-22T04:24:19.087Z,93.1
2023-04-22T04:30:11.275Z,92.9
2023-04-22T04:36:08.691Z,92.1
2023-04-22T04:42:16.085Z,92.4
2023-04-22T04:48:12.033Z,91.9
2023-04-22T04:54:03.081Z,91.7
2023-04-22T04:59:56.936Z,91.5
2023-04-22T05:05:49.967Z,91.1
2023-04-22T05:11:45.659Z,90.5
2023-04-22T05:17:39.394Z,90.1
2023-04-22T05:23:30.234Z,89.6
2023-04-22T05:29:20.347Z,89.1
2023-04-22T05:35:12.350Z,88
2023-04-22T05:41:02.928Z,86.7
2023-04-22T05:46:59.155Z,83.7
2023-04-22T05:52:52.364Z,83.4
2023-04-22T05:58:44.212Z,84.4
2023-04-22T06:04:44.303Z,84.3
2023-04-22T06:10:36.897Z,84.8
2023-04-22T06:16:53.738Z,85.4
2023-04-22T06:29:34.700Z,85.2
2023-04-22T06:35:52.443Z,84.4
2023-04-22T06:48:24.873Z,81.8
2023-04-22T06:54:21.580Z,81
2023-04-22T07:00:54.431Z,80.8
2023-04-22T07:19:40.065Z,79.1
2023-04-22T07:26:00.962Z,77.8
2023-04-22T07:32:04.386Z,77.8
2023-04-22T07:38:03.248Z,77.4
2023-04-22T07:44:13.842Z,76.9
2023-04-22T08:03:18.743Z,73.5
2023-04-22T08:09:52.021Z,72.6
2023-04-22T08:15:51.938Z,72.4
2023-04-22T08:21:49.125Z,70.4
2023-04-22T08:27:44.667Z,70.4
2023-04-22T08:33:38.585Z,67.5
2023-04-22T08:39:33.345Z,67.1
2023-04-22T08:45:36.731Z,64.6
2023-04-22T08:51:49.622Z,64.6
2023-04-22T08:57:43.355Z,64.8
2023-04-22T09:03:40.482Z,62.9
2023-04-22T09:09:33.479Z,63.6
2023-04-22T09:15:32.913Z,62.6
2023-04-22T09:21:22.598Z,61.3
2023-04-22T09:27:14.938Z,61
2023-04-22T09:33:06.875Z,60.2
2023-04-22T09:38:59.119Z,59.9
2023-04-22T09:44:51.478Z,59.3
2023-04-22T09:50:44.126Z,59.5
2023-04-22T09:56:36.044Z,58.5
2023-04-22T10:02:28.794Z,57.2
2023-04-22T10:08:21.847Z,56.1
2023-04-22T10:14:15.106Z,56.6
2023-04-22T10:20:07.199Z,56.3
2023-04-22T10:25:59.122Z,56.3
2023-04-22T10:31:51.981Z,56.2
2023-04-22T10:37:44.927Z,56.3
2023-04-22T10:43:36.709Z,55.8
2023-04-22T10:49:29.174Z,54.3
2023-04-22T10:55:20.983Z,51.3
2023-04-22T11:01:12.799Z,50.9
2023-04-22T11:07:04.816Z,49.9
2023-04-22T11:12:56.582Z,50
2023-04-22T11:18:48.727Z,50.4
2023-04-22T11:24:40.493Z,49.9
2023-04-22T11:30:32.307Z,51
2023-04-22T11:36:24.476Z,50.7
2023-04-22T11:42:16.720Z,51.4
2023-04-22T11:48:08.642Z,51.1
2023-04-22T11:54:01.759Z,51.3
2023-04-22T11:59:54.207Z,51.4
2023-04-22T12:05:46.192Z,52.2
2023-04-22T12:11:38.112Z,52.2
2023-04-22T12:17:29.811Z,52.5
2023-04-22T12:23:21.685Z,53.1
2023-04-22T12:29:13.674Z,52.2
2023-04-22T12:35:07.330Z,52.2
2023-04-22T12:40:58.461Z,52.1
2023-04-22T12:46:51.081Z,53.6
2023-04-22T12:52:42.799Z,54
2023-04-22T12:58:35.063Z,54.5
2023-04-22T13:04:26.832Z,54.9
2023-04-22T13:10:19.500Z,55
2023-04-22T13:16:11.477Z,55.5
2023-04-22T13:22:04.521Z,55.8
2023-04-22T13:27:59.029Z,55
2023-04-22T13:33:51.358Z,55.1
2023-04-22T13:39:43.851Z,55.8
2023-04-22T13:45:36.069Z,56.5
2023-04-22T13:51:27.932Z,56.6
2023-04-22T13:57:19.889Z,57.2
2023-04-22T14:03:11.967Z,57.9
2023-04-22T14:09:04.872Z,58.7
2023-04-22T14:14:57.328Z,58.6
2023-04-22T14:20:49.063Z,58.9
2023-04-22T14:26:41.315Z,59.2
2023-04-22T14:32:33.593Z,59.9
2023-04-22T14:38:26.285Z,60.1
2023-04-22T14:44:18.177Z,59.6
2023-04-22T14:50:10.308Z,59
2023-04-22T14:56:01.585Z,57.1
2023-04-22T15:01:54.409Z,57
2023-04-22T15:07:46.616Z,56.9
2023-04-22T15:13:39.189Z,58.3
2023-04-22T15:19:39.562Z,58.5
2023-04-22T15:25:31.426Z,58.9
2023-04-22T15:31:38.631Z,58.7
2023-04-22T15:37:31.162Z,59.7
2023-04-22T15:43:24.170Z,60.5
2023-04-22T15:49:17.408Z,60.6
2023-04-22T15:55:11.817Z,62.1
2023-04-22T16:01:21.383Z,62
2023-04-22T16:07:13.691Z,62.3
2023-04-22T16:13:06.625Z,62.8
2023-04-22T16:19:02.083Z,63.5
2023-04-22T16:24:54.459Z,64.1
2023-04-22T16:30:50.331Z,64.9
2023-04-22T16:36:46.305Z,65
2023-04-22T16:42:48.152Z,64.9
2023-04-22T16:48:40.964Z,65.4
2023-04-22T16:54:33.346Z,65.5
2023-04-22T17:00:26.276Z,66.1
2023-04-22T17:06:18.682Z,67.9
2023-04-22T17:12:12.188Z,71.8
2023-04-22T17:18:16.396Z,78.8
2023-04-22T17:24:20.535Z,79
2023-04-22T17:30:27.490Z,81.6
2023-04-22T17:36:28.804Z,83
2023-04-22T17:42:49.117Z,83.1
2023-04-22T17:48:54.006Z,82.6
2023-04-22T18:01:19.197Z,83.1
2023-04-22T18:07:31.575Z,83.5
2023-04-22T18:13:25.605Z,84
2023-04-22T18:19:27.333Z,83.7
2023-04-22T18:25:22.740Z,83.5
2023-04-22T18:31:15.174Z,85.2
2023-04-22T18:43:43.937Z,83.1
2023-04-22T18:56:01.565Z,83.5
2023-04-22T19:02:00.010Z,84.1
2023-04-22T19:07:58.545Z,83
2023-04-22T19:14:04.795Z,83.9
2023-04-22T19:20:02.498Z,84.4
2023-04-22T19:26:10.648Z,83.6
2023-04-22T19:32:26.927Z,84.5
2023-04-22T19:38:34.555Z,83.9
2023-04-22T19:44:47.786Z,84.4
2023-04-22T19:51:01.319Z,83.8
2023-04-22T19:57:32.463Z,84.2
2023-04-22T20:04:49.692Z,83.4
2023-04-22T20:16:53.064Z,83.7
2023-04-22T20:23:02.875Z,85.5
2023-04-22T20:28:55.039Z,84.7
2023-04-22T20:34:56.541Z,85.3
2023-04-22T20:40:49.457Z,85.8
2023-04-22T20:53:17.212Z,86.9
2023-04-22T21:05:33.249Z,89.5
2023-04-22T21:24:20.680Z,85.7
2023-04-22T21:30:36.764Z,85.5
2023-04-22T21:36:36.244Z,85.4
2023-04-22T21:42:41.103Z,86
2023-04-22T21:48:39.945Z,86.4
2023-04-22T21:54:32.306Z,86.6
2023-04-22T22:00:29.245Z,86.5
2023-04-22T22:06:27.838Z,87.1
2023-04-22T22:12:29.275Z,88.2
2023-04-22T22:18:24.718Z,89.5
2023-04-22T22:24:18.160Z,90.4
2023-04-22T22:30:17.477Z,90.9
2023-04-22T22:36:14.225Z,92.8
2023-04-22T22:42:15.783Z,95
2023-04-22T22:48:28.605Z,96.1
2023-04-22T22:54:22.521Z,96.8
2023-04-22T23:00:16.993Z,100
2023-04-22T23:06:13.782Z,100
2023-04-22T23:12:08.423Z,100
2023-04-22T23:18:24.320Z,100
2023-04-22T23:24:18.066Z,100
2023-04-22T23:30:26.635Z,100
2023-04-22T23:36:27.072Z,100
2023-04-22T23:42:20.253Z,100
2023-04-22T23:48:27.348Z,100
2023-04-22T23:54:48.713Z,100
